createdAt,value
2022-08-25T04:40:23.802Z,23.17
2022-08-25T04:42:38.147Z,23.209999
2022-08-25T04:44:54.672Z,23.309999
2022-08-25T04:47:10.043Z,23.469999
2022-08-25T04:49:24.449Z,23.66
2022-08-25T04:51:38.764Z,23.860001
2022-08-25T04:53:53.239Z,24.049999
2022-08-25T04:56:07.628Z,24.23
2022-08-25T04:58:22.039Z,24.389999
2022-08-25T05:00:36.460Z,24.530001
2022-08-25T05:02:50.939Z,24.65
2022-08-25T05:05:05.327Z,24.76
2022-08-25T05:07:19.673Z,24.85
2022-08-25T05:09:34.013Z,24.93
2022-08-25T05:11:48.338Z,25.01
2022-08-25T05:14:02.771Z,25.08
2022-08-25T05:16:17.146Z,25.15
2022-08-25T05:18:31.465Z,25.219999
2022-08-25T05:20:46.948Z,25.299999
2022-08-25T05:23:01.434Z,25.360001
2022-08-25T05:25:16.808Z,25.41
2022-08-25T05:27:31.178Z,25.469999
2022-08-25T05:29:45.533Z,25.52
2022-08-25T05:31:59.902Z,25.559999
2022-08-25T05:34:14.274Z,25.6
2022-08-25T05:36:28.699Z,25.629999
2022-08-25T05:38:43.124Z,25.66
2022-08-25T05:40:57.498Z,25.690001
2022-08-25T05:43:11.920Z,25.73
2022-08-25T05:45:26.427Z,25.77
2022-08-25T05:47:40.718Z,25.82
2022-08-25T05:49:55.123Z,25.860001
2022-08-25T05:52:09.496Z,25.91
2022-08-25T05:54:26.816Z,25.950001
2022-08-25T05:56:41.503Z,25.99
2022-08-25T05:58:56.826Z,26.030001
2022-08-25T06:01:14.312Z,26.059999
2022-08-25T06:03:29.670Z,26.1
2022-08-25T06:05:43.974Z,26.15
2022-08-25T06:07:58.377Z,26.190001
2022-08-25T06:10:12.852Z,26.23
2022-08-25T06:12:27.243Z,26.280001
2022-08-25T06:14:41.883Z,26.32
2022-08-25T06:16:56.168Z,26.370001
2022-08-25T06:19:11.125Z,26.41
2022-08-25T06:21:25.352Z,26.459999
2022-08-25T06:23:40.125Z,26.52
2022-08-25T06:25:54.607Z,26.58
2022-08-25T06:28:09.030Z,26.639999
2022-08-25T06:30:24.452Z,26.700001
2022-08-25T06:32:38.857Z,26.75
2022-08-25T06:34:53.303Z,26.799999
2022-08-25T06:37:07.709Z,26.84
2022-08-25T06:39:22.018Z,26.860001
2022-08-25T06:41:37.450Z,26.879999
2022-08-25T06:43:55.859Z,26.9
2022-08-25T06:46:09.332Z,26.940001
2022-08-25T06:48:23.795Z,27
2022-08-25T06:50:38.253Z,27.059999
2022-08-25T06:52:53.160Z,27.110001
2022-08-25T06:55:07.494Z,27.16
2022-08-25T06:57:21.991Z,27.190001
2022-08-25T06:59:36.340Z,27.23
2022-08-25T07:01:51.862Z,27.27
2022-08-25T07:04:10.237Z,27.299999
2022-08-25T07:06:22.550Z,27.33
2022-08-25T07:08:36.955Z,27.360001
2022-08-25T07:10:51.392Z,27.4
2022-08-25T07:13:06.800Z,27.459999
2022-08-25T07:15:21.275Z,27.530001
2022-08-25T07:17:35.583Z,27.6
2022-08-25T07:19:51.923Z,27.65
2022-08-25T07:22:07.324Z,27.700001
2022-08-25T07:24:21.886Z,27.75
2022-08-25T07:26:38.089Z,27.82
2022-08-25T07:28:50.792Z,27.879999
2022-08-25T07:31:05.221Z,27.950001
2022-08-25T07:33:19.551Z,28.030001
2022-08-25T07:35:36.505Z,28.110001
2022-08-25T07:37:50.312Z,28.190001
2022-08-25T07:40:06.731Z,28.290001
2022-08-25T07:42:20.995Z,28.379999
2022-08-25T07:44:36.355Z,28.48
2022-08-25T07:46:51.775Z,28.559999
2022-08-25T07:49:09.242Z,28.639999
2022-08-25T07:51:23.549Z,28.700001
2022-08-25T07:53:37.827Z,28.74
2022-08-25T07:55:53.549Z,28.780001
2022-08-25T07:58:07.693Z,28.84
2022-08-25T08:00:22.014Z,28.9
2022-08-25T08:02:36.372Z,28.959999
2022-08-25T08:04:50.708Z,29.02
2022-08-25T08:07:05.107Z,29.08
2022-08-25T08:09:20.447Z,29.139999
2022-08-25T08:11:34.801Z,29.23
2022-08-25T08:13:52.123Z,29.32
2022-08-25T08:16:06.551Z,29.41
2022-08-25T08:18:21.897Z,29.48
2022-08-25T08:20:42.431Z,29.559999
2022-08-25T08:22:51.855Z,29.639999
2022-08-25T08:25:06.214Z,29.719999
2022-08-25T08:27:22.707Z,29.799999
2022-08-25T08:29:37.184Z,29.870001
2022-08-25T08:31:51.609Z,29.950001
2022-08-25T08:34:05.897Z,30.040001
2022-08-25T08:36:21.242Z,30.120001
2022-08-25T08:38:36.615Z,30.209999
2022-08-25T08:40:50.928Z,30.299999
2022-08-25T08:43:06.479Z,30.379999
2022-08-25T08:45:23.620Z,30.469999
2022-08-25T08:47:38.031Z,30.559999
2022-08-25T08:49:52.420Z,30.639999
2022-08-25T08:52:06.762Z,30.709999
2022-08-25T08:54:21.136Z,30.780001
2022-08-25T08:56:36.469Z,30.83
2022-08-25T08:58:53.895Z,30.9
2022-08-25T09:01:11.229Z,30.959999
2022-08-25T09:03:25.633Z,31.01
2022-08-25T09:05:42.847Z,31.059999
2022-08-25T09:07:56.395Z,31.120001
2022-08-25T09:10:10.731Z,31.190001
2022-08-25T09:12:26.122Z,31.27
2022-08-25T09:14:42.511Z,31.34
2022-08-25T09:16:59.985Z,31.41
2022-08-25T09:19:21.459Z,31.459999
2022-08-25T09:21:30.721Z,31.5
2022-08-25T09:23:45.177Z,31.549999
2022-08-25T09:25:59.545Z,31.6
2022-08-25T09:28:14.916Z,31.66
2022-08-25T09:30:29.292Z,31.73
2022-08-25T09:32:47.438Z,31.790001
2022-08-25T09:35:00.034Z,31.860001
2022-08-25T09:37:14.452Z,31.93
2022-08-25T09:39:29.766Z,31.99
2022-08-25T09:41:44.173Z,32.029999
2022-08-25T09:44:00.535Z,32.040001
2022-08-25T09:46:15.978Z,32.029999
2022-08-25T09:48:30.296Z,31.98
2022-08-25T09:50:47.616Z,31.950001
2022-08-25T09:53:02.043Z,31.950001
2022-08-25T09:55:19.308Z,31.959999
2022-08-25T09:57:34.665Z,31.98
2022-08-25T09:59:53.697Z,32.040001
2022-08-25T10:02:06.517Z,32.09
2022-08-25T10:04:23.830Z,32.119999
2022-08-25T10:06:38.234Z,32.150002
2022-08-25T10:08:53.621Z,32.200001
2022-08-25T10:11:08.798Z,32.240002
2022-08-25T10:13:23.549Z,32.259998
2022-08-25T10:15:37.991Z,32.299999
2022-08-25T10:17:52.297Z,32.32
2022-08-25T10:20:07.723Z,32.299999
2022-08-25T10:22:22.135Z,32.25
2022-08-25T10:24:36.556Z,32.209999
2022-08-25T10:26:51.875Z,32.16
2022-08-25T10:29:06.244Z,32.099998
2022-08-25T10:31:20.643Z,32.049999
2022-08-25T10:33:35.068Z,32.009998
2022-08-25T10:35:50.359Z,31.99
2022-08-25T10:38:04.808Z,32.02
2022-08-25T10:40:20.252Z,32.09
2022-08-25T10:42:35.570Z,32.169998
2022-08-25T10:44:51.902Z,32.25
2022-08-25T10:47:06.319Z,32.369999
2022-08-25T10:49:20.781Z,32.5
2022-08-25T10:51:35.138Z,32.630001
2022-08-25T10:53:49.551Z,32.759998
2022-08-25T10:56:07.055Z,32.880001
2022-08-25T10:58:20.241Z,32.919998
2022-08-25T11:00:36.594Z,32.970001
2022-08-25T11:02:53.897Z,33.060001
2022-08-25T11:05:09.453Z,33.139999
2022-08-25T11:07:24.674Z,33.18
2022-08-25T11:09:39.058Z,33.220001
2022-08-25T11:11:54.389Z,33.25
2022-08-25T11:14:09.435Z,33.299999
2022-08-25T11:16:23.234Z,33.34
2022-08-25T11:18:37.597Z,33.400002
2022-08-25T11:20:51.983Z,33.470001
2022-08-25T11:23:06.746Z,33.529999
2022-08-25T11:25:21.617Z,33.59
2022-08-25T11:27:35.261Z,33.630001
2022-08-25T11:29:51.635Z,33.610001
2022-08-25T11:32:06.010Z,33.599998
2022-08-25T11:34:20.375Z,33.59
2022-08-25T11:36:36.984Z,33.610001
2022-08-25T11:38:53.288Z,33.639999
2022-08-25T11:41:10.923Z,33.669998
2022-08-25T11:43:23.113Z,33.740002
2022-08-25T11:45:39.511Z,33.84
2022-08-25T11:47:55.905Z,33.919998
2022-08-25T11:50:10.321Z,33.970001
2022-08-25T11:52:28.924Z,34
2022-08-25T11:54:42.184Z,34.02
2022-08-25T11:56:56.559Z,34.040001
2022-08-25T11:59:11.903Z,34.099998
2022-08-25T12:01:26.262Z,34.169998
2022-08-25T12:03:40.689Z,34.240002
2022-08-25T12:05:55.054Z,34.34
2022-08-25T12:08:09.487Z,34.459999
2022-08-25T12:10:23.810Z,34.599998
2022-08-25T12:12:38.275Z,34.73
2022-08-25T12:14:52.612Z,34.889999
2022-08-25T12:17:06.997Z,35.040001
2022-08-25T12:19:22.389Z,35.18
2022-08-25T12:21:37.737Z,35.310001
2022-08-25T12:23:54.125Z,35.439999
2022-08-25T12:26:08.497Z,35.57
2022-08-25T12:28:22.931Z,35.669998
2022-08-25T12:30:39.361Z,35.799999
2022-08-25T12:32:53.684Z,35.93
2022-08-25T12:35:08.057Z,36.049999
2022-08-25T12:37:22.423Z,36.189999
2022-08-25T12:39:36.759Z,36.330002
2022-08-25T12:41:51.161Z,36.459999
2022-08-25T12:44:05.485Z,36.59
2022-08-25T12:46:20.876Z,36.73
2022-08-25T12:48:35.222Z,36.880001
2022-08-25T12:50:50.543Z,37.02
2022-08-25T12:53:05.094Z,37.139999
2022-08-25T12:55:19.247Z,37.240002
2022-08-25T12:57:33.625Z,37.360001
2022-08-25T12:59:49.966Z,37.459999
2022-08-25T13:02:07.154Z,37.5
2022-08-25T13:04:19.852Z,37.529999
2022-08-25T13:06:34.275Z,37.549999
2022-08-25T13:08:49.623Z,37.619999
2022-08-25T13:11:05.047Z,37.720001
2022-08-25T13:13:19.420Z,37.799999
2022-08-25T13:15:34.768Z,37.880001
2022-08-25T13:17:51.112Z,37.93
2022-08-25T13:20:05.442Z,37.950001
2022-08-25T13:22:20.814Z,37.959999
2022-08-25T13:24:40.235Z,37.990002
2022-08-25T13:26:50.506Z,38.060001
2022-08-25T13:29:09.012Z,38.119999
2022-08-25T13:31:20.231Z,38.189999
2022-08-25T13:33:34.554Z,38.130001
2022-08-25T13:35:48.911Z,38.009998
2022-08-25T13:38:03.293Z,37.919998
2022-08-25T13:40:18.689Z,37.91
2022-08-25T13:42:34.960Z,37.970001
2022-08-25T13:44:53.679Z,38.07
2022-08-25T13:47:06.687Z,38.189999
2022-08-25T13:49:21.012Z,38.299999
2022-08-25T13:51:35.356Z,38.389999
2022-08-25T13:53:51.728Z,38.490002
2022-08-25T13:56:08.302Z,38.610001
2022-08-25T13:58:24.544Z,38.740002
2022-08-25T14:00:41.138Z,38.849998
2022-08-25T14:02:56.540Z,38.919998
2022-08-25T14:05:13.764Z,38.959999
2022-08-25T14:07:33.623Z,38.990002
2022-08-25T14:09:46.480Z,39.029999
2022-08-25T14:12:00.791Z,39.09
2022-08-25T14:14:15.169Z,39.16
2022-08-25T14:16:30.858Z,39.189999
2022-08-25T14:18:45.174Z,39.18
2022-08-25T14:21:00.821Z,39.139999
2022-08-25T14:23:18.736Z,39.09
2022-08-25T14:25:30.705Z,38.970001
2022-08-25T14:28:07.074Z,38.919998
2022-08-25T14:30:03.322Z,38.950001
2022-08-25T14:32:18.097Z,38.98
2022-08-25T14:34:33.530Z,38.990002
2022-08-25T14:36:49.917Z,39.029999
2022-08-25T14:39:04.256Z,39.099998
2022-08-25T14:41:19.150Z,39.130001
2022-08-25T14:43:33.516Z,39.150002
2022-08-25T14:45:48.146Z,39.189999
2022-08-25T14:48:02.318Z,39.240002
2022-08-25T14:50:20.207Z,39.330002
2022-08-25T14:52:33.991Z,39.41
2022-08-25T14:54:48.363Z,39.52
2022-08-25T14:57:02.723Z,39.639999
2022-08-25T14:59:18.143Z,39.75
2022-08-25T15:01:32.556Z,39.810001
2022-08-25T15:03:47.291Z,39.860001
2022-08-25T15:06:01.421Z,39.84
2022-08-25T15:08:17.070Z,39.669998
2022-08-25T15:10:33.436Z,39.450001
2022-08-25T15:12:48.189Z,39.32
2022-08-25T15:15:03.407Z,39.07
2022-08-25T15:17:17.796Z,38.75
2022-08-25T15:19:32.169Z,38.389999
2022-08-25T15:21:46.513Z,38.040001
2022-08-25T15:24:00.910Z,37.75
2022-08-25T15:26:16.246Z,37.599998
2022-08-25T15:28:31.601Z,37.610001
2022-08-25T15:30:46.980Z,37.77
2022-08-25T15:33:01.457Z,38.02
2022-08-25T15:35:16.752Z,38.200001
2022-08-25T15:37:34.107Z,38.34
2022-08-25T15:39:49.486Z,38.419998
2022-08-25T15:42:03.803Z,38.549999
2022-08-25T15:44:19.256Z,38.709999
2022-08-25T15:46:36.643Z,38.849998
2022-08-25T15:48:52.968Z,38.93
2022-08-25T15:51:07.372Z,38.950001
2022-08-25T15:53:21.723Z,38.939999
2022-08-25T15:55:36.103Z,38.950001
2022-08-25T15:57:51.473Z,38.93
2022-08-25T16:00:05.802Z,38.900002
2022-08-25T16:02:21.274Z,38.84
2022-08-25T16:04:35.572Z,38.790001
2022-08-25T16:06:49.986Z,38.720001
2022-08-25T16:09:06.347Z,38.669998
2022-08-25T16:11:20.858Z,38.639999
2022-08-25T16:13:35.221Z,38.599998
2022-08-25T16:15:53.030Z,38.580002
2022-08-25T16:18:05.094Z,38.529999
2022-08-25T16:20:20.756Z,38.459999
2022-08-25T16:22:35.110Z,38.389999
2022-08-25T16:24:49.509Z,38.349998
2022-08-25T16:27:11.308Z,38.330002
2022-08-25T16:29:20.244Z,38.290001
2022-08-25T16:31:36.718Z,38.240002
2022-08-25T16:33:52.501Z,38.200001
2022-08-25T16:36:07.623Z,38.169998
2022-08-25T16:38:22.084Z,38.139999
2022-08-25T16:40:36.447Z,38.07
2022-08-25T16:42:51.835Z,38
2022-08-25T16:45:06.217Z,37.91
2022-08-25T16:47:20.949Z,37.810001
2022-08-25T16:49:36.361Z,37.700001
2022-08-25T16:51:56.613Z,37.560001
2022-08-25T16:54:08.166Z,37.369999
2022-08-25T16:56:24.533Z,37.18
2022-08-25T16:58:38.916Z,36.98
2022-08-25T17:00:55.379Z,36.779999
2022-08-25T17:03:09.649Z,36.549999
2022-08-25T17:05:24.054Z,36.299999
2022-08-25T17:07:38.414Z,36.049999
2022-08-25T17:09:52.769Z,35.82
2022-08-25T17:12:07.157Z,35.619999
2022-08-25T17:14:21.539Z,35.439999
2022-08-25T17:16:36.075Z,35.279999
2022-08-25T17:18:50.354Z,35.119999
2022-08-25T17:21:04.868Z,34.959999
2022-08-25T17:23:21.351Z,34.799999
2022-08-25T17:25:35.700Z,34.669998
2022-08-25T17:27:52.103Z,34.540001
2022-08-25T17:30:06.504Z,34.380001
2022-08-25T17:32:20.856Z,34.200001
2022-08-25T17:34:38.273Z,34.009998
2022-08-25T17:36:52.621Z,33.830002
2022-08-25T17:39:07.030Z,33.68
2022-08-25T17:41:21.410Z,33.560001
2022-08-25T17:43:35.854Z,33.439999
2022-08-25T17:45:50.178Z,33.310001
2022-08-25T17:48:05.689Z,33.18
2022-08-25T17:50:19.919Z,33.080002
2022-08-25T17:52:34.303Z,32.970001
2022-08-25T17:54:49.647Z,32.84
2022-08-25T17:57:05.026Z,32.709999
2022-08-25T17:59:21.563Z,32.560001
2022-08-25T18:01:40.401Z,32.380001
2022-08-25T18:03:55.099Z,32.189999
2022-08-25T18:06:09.486Z,32
2022-08-25T18:08:29.903Z,31.84
2022-08-25T18:10:42.554Z,31.700001
2022-08-25T18:12:56.963Z,31.58
2022-08-25T18:15:11.436Z,31.459999
2022-08-25T18:17:25.883Z,31.35
2022-08-25T18:19:40.924Z,31.25
2022-08-25T18:21:55.677Z,31.18
2022-08-25T18:24:11.152Z,31.110001
2022-08-25T18:26:26.563Z,31.040001
2022-08-25T18:28:43.797Z,30.950001
2022-08-25T18:30:56.429Z,30.85
2022-08-25T18:33:11.047Z,30.75
2022-08-25T18:35:26.573Z,30.65
2022-08-25T18:37:39.947Z,30.559999
2022-08-25T18:39:55.479Z,30.469999
2022-08-25T18:42:12.878Z,30.370001
2022-08-25T18:44:27.367Z,30.290001
2022-08-25T18:46:42.928Z,30.219999
2022-08-25T18:48:58.448Z,30.18
2022-08-25T18:51:12.853Z,30.15
2022-08-25T18:53:36.942Z,30.110001
2022-08-25T18:55:47.622Z,30.07
2022-08-25T18:58:01.980Z,30.030001
2022-08-25T19:00:17.453Z,29.98
2022-08-25T19:02:31.980Z,29.940001
2022-08-25T19:04:47.408Z,29.91
2022-08-25T19:07:01.818Z,29.879999
2022-08-25T19:09:17.304Z,29.84
2022-08-25T19:11:31.962Z,29.809999
2022-08-25T19:13:49.058Z,29.77
2022-08-25T19:16:08.764Z,29.74
2022-08-25T19:18:29.105Z,29.709999
2022-08-25T19:20:40.465Z,29.690001
2022-08-25T19:22:55.332Z,29.65
2022-08-25T19:25:10.800Z,29.610001
2022-08-25T19:27:26.905Z,29.57
2022-08-25T19:29:41.237Z,29.530001
2022-08-25T19:31:55.690Z,29.49
2022-08-25T19:34:11.076Z,29.450001
2022-08-25T19:36:27.979Z,29.42
2022-08-25T19:38:40.328Z,29.4
2022-08-25T19:40:54.750Z,29.370001
2022-08-25T19:43:09.153Z,29.35
2022-08-25T19:45:24.633Z,29.32
2022-08-25T19:47:39.034Z,29.299999
2022-08-25T19:52:10.558Z,29.25
2022-08-25T19:54:24.211Z,29.219999
2022-08-25T19:56:43.743Z,29.18
2022-08-25T19:58:56.292Z,29.15
2022-08-25T20:01:10.803Z,29.110001
2022-08-25T20:03:27.171Z,29.09
2022-08-25T20:05:41.647Z,29.07
2022-08-25T20:07:57.867Z,29.040001
2022-08-25T20:10:18.903Z,29.02
2022-08-25T20:12:35.327Z,28.99
2022-08-25T20:14:49.746Z,28.950001
2022-08-25T20:17:04.184Z,28.91
2022-08-25T20:19:23.978Z,28.870001
2022-08-25T20:21:43.719Z,28.83
2022-08-25T20:23:58.167Z,28.809999
2022-08-25T20:26:12.701Z,28.790001
2022-08-25T20:28:27.070Z,28.76
2022-08-25T20:30:41.765Z,28.73
2022-08-25T20:32:56.310Z,28.700001
2022-08-25T20:35:13.027Z,28.68
2022-08-25T20:37:25.423Z,28.66
2022-08-25T20:39:40.849Z,28.639999
2022-08-25T20:41:56.276Z,28.620001
2022-08-25T20:44:10.794Z,28.6
2022-08-25T20:46:26.380Z,28.58
2022-08-25T20:48:40.650Z,28.549999
2022-08-25T20:50:57.577Z,28.530001
2022-08-25T20:53:13.476Z,28.52
2022-08-25T20:55:28.283Z,28.5
2022-08-25T20:57:45.938Z,28.49
2022-08-25T21:00:00.470Z,28.48
2022-08-25T21:02:15.088Z,28.459999
2022-08-25T21:04:29.238Z,28.43
2022-08-25T21:06:45.785Z,28.42
2022-08-25T21:09:00.309Z,28.41
2022-08-25T21:11:17.249Z,28.42
2022-08-25T21:13:33.244Z,28.440001
2022-08-25T21:15:47.859Z,28.450001
2022-08-25T21:18:02.194Z,28.41
2022-08-25T21:20:17.664Z,28.379999
2022-08-25T21:22:32.603Z,28.370001
2022-08-25T21:24:47.992Z,28.360001
2022-08-25T21:27:02.417Z,28.34
2022-08-25T21:29:16.838Z,28.309999
